Time;durP1;ratioP1;P1;durP2;ratioP2;P2;SDS_P1;SDS_P2;PMS_P1;PMS_P2;Temp;Humidity;BMP_temperature;BMP_pressure;BME280_temperature;BME280_humidity;BME280_pressure;Samples;Min_cycle;Max_cycle;Signal;HPM_P1;HPM_P2
2023/05/30 00:00:36;;;;;;;7.20;3.73;;;;;;;;;;5001346;28;20449;-87
2023/05/30 00:03:05;;;;;;;6.53;2.57;;;;;;;;;;5001245;28;20483;-87
2023/05/30 00:05:32;;;;;;;8.27;2.70;;;14.00;99.90;;;;;;5000518;28;21021;-87
2023/05/30 00:07:59;;;;;;;6.10;3.27;;;14.00;99.90;;;;;;5001453;28;20445;-88
2023/05/30 00:10:26;;;;;;;4.03;2.80;;;14.60;99.90;;;;;;5001850;28;21000;-88
2023/05/30 00:12:54;;;;;;;5.93;2.43;;;14.20;99.90;;;;;;5001671;28;20868;-88
2023/05/30 00:15:22;;;;;;;4.77;2.50;;;14.10;99.90;;;;;;5000303;28;21003;-88
2023/05/30 00:17:52;;;;;;;4.37;2.47;;;14.20;99.90;;;;;;5001019;28;20445;-88
2023/05/30 00:20:22;;;;;;;4.90;2.70;;;14.40;99.90;;;;;;5012084;28;20441;-88
2023/05/30 00:22:49;;;;;;;5.67;3.20;;;14.20;99.90;;;;;;5002588;28;20460;-88
2023/05/30 00:25:16;;;;;;;4.17;2.30;;;14.10;99.90;;;;;;5001431;28;21030;-88
2023/05/30 00:27:44;;;;;;;4.50;2.97;;;14.10;99.90;;;;;;5000725;28;20930;-88
2023/05/30 00:30:12;;;;;;;4.10;2.50;;;14.10;99.90;;;;;;5009368;28;20460;-86
2023/05/30 00:32:39;;;;;;;3.20;2.77;;;14.10;99.90;;;;;;5019155;28;20443;-85
2023/05/30 00:35:08;;;;;;;7.20;2.70;;;14.00;99.90;;;;;;5018027;28;20489;-88
2023/05/30 00:37:36;;;;;;;4.70;2.23;;;13.80;99.90;;;;;;5003157;28;20419;-87
2023/05/30 00:40:04;;;;;;;2.93;2.63;;;14.00;99.90;;;;;;5006968;28;20484;-87
2023/05/30 00:42:30;;;;;;;3.23;2.43;;;14.00;99.90;;;;;;5014966;28;20520;-88
2023/05/30 00:44:57;;;;;;;4.00;2.83;;;13.80;1.00;;;;;;5007408;28;20976;-87
2023/05/30 00:47:24;;;;;;;4.63;2.87;;;14.00;99.90;;;;;;5005690;28;20520;-86
2023/05/30 00:49:52;;;;;;;6.83;3.17;;;14.00;99.90;;;;;;5002601;28;20457;-88
2023/05/30 00:52:21;;;;;;;5.43;3.10;;;13.90;99.90;;;;;;5001039;28;20427;-86
2023/05/30 00:54:50;;;;;;;6.30;2.23;;;14.00;99.90;;;;;;5007700;28;20471;-87
2023/05/30 00:57:17;;;;;;;3.97;2.77;;;13.90;99.90;;;;;;5012956;28;20440;-87
2023/05/30 00:59:45;;;;;;;6.90;2.97;;;13.90;99.90;;;;;;5019808;28;20461;-89
2023/05/30 01:02:12;;;;;;;2.80;2.10;;;13.80;99.90;;;;;;5020077;28;20489;-89
2023/05/30 01:04:40;;;;;;;3.63;2.40;;;13.80;99.90;;;;;;5019897;28;20532;-89
2023/05/30 01:07:10;;;;;;;5.83;2.70;;;13.70;99.90;;;;;;5019832;28;20476;-88
2023/05/30 01:09:37;;;;;;;3.40;2.57;;;13.30;1.00;;;;;;5019683;28;20479;-87
2023/05/30 01:12:14;;;;;;;5.77;2.37;;;13.60;99.90;;;;;;5019587;28;20404;-89
2023/05/30 01:14:50;;;;;;;3.23;2.50;;;13.60;99.90;;;;;;5005366;28;20571;-87
2023/05/30 01:17:24;;;;;;;3.33;2.37;;;13.40;99.90;;;;;;5001352;28;20460;-87
2023/05/30 01:20:10;;;;;;;4.63;2.50;;;13.30;99.90;;;;;;5000330;28;20445;-87
2023/05/30 01:22:55;;;;;;;3.50;2.40;;;13.30;99.90;;;;;;5006911;28;20455;-87
2023/05/30 01:25:45;;;;;;;4.77;2.47;;;13.30;99.90;;;;;;5010947;28;20473;-88
2023/05/30 01:28:16;;;;;;;5.03;2.70;;;13.70;99.90;;;;;;5011906;28;20406;-88
2023/05/30 01:30:46;;;;;;;7.40;2.40;;;13.30;99.90;;;;;;5019328;28;20425;-87
2023/05/30 01:33:14;;;;;;;5.77;2.63;;;12.90;1.00;;;;;;5013162;28;20498;-87
2023/05/30 01:35:43;;;;;;;3.43;2.30;;;13.20;99.90;;;;;;5003913;28;20511;-87
2023/05/30 01:38:10;;;;;;;4.00;2.60;;;13.20;99.90;;;;;;5000778;28;20452;-87
2023/05/30 01:40:38;;;;;;;4.00;2.13;;;13.20;99.90;;;;;;5002133;28;20452;-87
2023/05/30 01:43:13;;;;;;;4.13;2.40;;;13.20;99.90;;;;;;5011378;28;20516;-87
2023/05/30 01:45:51;;;;;;;5.50;2.97;;;13.00;99.90;;;;;;5011104;28;20466;-88
2023/05/30 01:48:25;;;;;;;3.70;2.70;;;13.10;99.90;;;;;;5012561;28;20899;-88
2023/05/30 01:50:53;;;;;;;7.90;3.67;;;13.10;99.90;;;;;;5003257;28;20471;-88
2023/05/30 01:53:26;;;;;;;7.80;2.83;;;13.10;1.00;;;;;;5000382;28;20842;-87
2023/05/30 01:55:57;;;;;;;7.30;2.67;;;12.90;99.90;;;;;;4999247;28;20493;-87
2023/05/30 01:58:24;;;;;;;4.87;2.83;;;12.90;99.90;;;;;;5014971;28;20413;-86
2023/05/30 02:00:55;;;;;;;5.27;2.27;;;12.70;99.90;;;;;;5006323;28;20492;-87
2023/05/30 02:03:24;;;;;;;5.60;3.10;;;12.90;99.90;;;;;;4999044;28;20532;-87
2023/05/30 02:05:51;;;;;;;2.57;2.17;;;13.80;1.00;;;;;;5007558;28;20469;-87
2023/05/30 02:08:18;;;;;;;3.30;2.10;;;12.60;1.00;;;;;;5018923;28;20451;-88
2023/05/30 02:10:45;;;;;;;5.47;2.80;;;12.90;99.90;;;;;;5012615;28;20468;-87
2023/05/30 02:13:12;;;;;;;3.83;2.27;;;12.80;99.90;;;;;;4999203;28;20808;-87
2023/05/30 02:15:40;;;;;;;4.77;2.60;;;12.80;99.90;;;;;;4999257;28;20579;-87
2023/05/30 02:18:08;;;;;;;8.93;3.13;;;12.80;99.90;;;;;;5000328;28;20461;-87
2023/05/30 02:20:36;;;;;;;2.87;2.27;;;12.60;99.90;;;;;;5000247;28;20524;-87
2023/05/30 02:23:03;;;;;;;5.60;2.93;;;12.70;99.90;;;;;;5000350;28;21009;-87
2023/05/30 02:25:29;;;;;;;2.70;2.50;;;12.70;99.90;;;;;;4999628;28;20549;-87
2023/05/30 02:27:56;;;;;;;5.30;3.03;;;12.70;99.90;;;;;;4999212;28;20468;-87
2023/05/30 02:30:23;;;;;;;2.90;2.47;;;12.70;99.90;;;;;;4999275;28;20452;-87
2023/05/30 02:32:50;;;;;;;5.70;3.17;;;12.50;99.90;;;;;;4997435;28;20548;-87
2023/05/30 02:35:18;;;;;;;4.50;3.00;;;12.50;99.90;;;;;;4999350;28;20492;-87
2023/05/30 02:37:45;;;;;;;4.93;2.60;;;12.60;99.90;;;;;;4998335;28;20536;-88
2023/05/30 02:40:13;;;;;;;7.80;2.83;;;12.30;1.00;;;;;;4998744;28;20539;-87
2023/05/30 02:42:40;;;;;;;6.17;2.47;;;12.50;99.90;;;;;;4998983;28;20526;-87
2023/05/30 02:45:07;;;;;;;4.03;3.00;;;12.50;99.90;;;;;;5002977;28;20770;-86
2023/05/30 02:47:34;;;;;;;4.10;2.73;;;12.50;99.90;;;;;;5000810;28;20536;-87
2023/05/30 02:50:01;;;;;;;6.67;3.30;;;12.50;99.90;;;;;;4997916;28;20453;-86
2023/05/30 02:52:30;;;;;;;8.03;3.00;;;12.60;99.90;;;;;;4998668;28;20461;-86
2023/05/30 02:54:57;;;;;;;7.07;2.63;;;12.60;99.90;;;;;;4997478;28;21006;-86
2023/05/30 02:57:23;;;;;;;8.43;2.83;;;12.50;99.90;;;;;;4997880;28;20483;-87
2023/05/30 02:59:50;;;;;;;3.90;2.00;;;12.40;99.90;;;;;;4998849;28;20531;-87
2023/05/30 03:02:17;;;;;;;5.10;2.53;;;12.50;99.90;;;;;;5005429;28;20471;-88
2023/05/30 03:04:46;;;;;;;3.60;3.13;;;12.40;99.90;;;;;;5002242;28;20556;-88
2023/05/30 03:07:13;;;;;;;4.07;2.63;;;;;;;;;;5002937;28;20426;-88
2023/05/30 03:09:41;;;;;;;6.73;3.00;;;12.60;99.90;;;;;;5011228;28;20449;-88
2023/05/30 03:12:08;;;;;;;5.93;2.27;;;12.70;99.90;;;;;;5009333;28;20487;-87
2023/05/30 03:14:35;;;;;;;3.50;2.60;;;12.70;99.90;;;;;;5018718;23;20467;-83
2023/05/30 03:17:03;;;;;;;3.60;2.57;;;12.80;99.90;;;;;;5000472;28;20479;-83
2023/05/30 03:19:30;;;;;;;5.90;2.93;;;12.80;99.90;;;;;;5002313;28;20449;-84
2023/05/30 03:21:57;;;;;;;6.57;2.87;;;12.80;99.90;;;;;;5002341;28;20456;-83
2023/05/30 03:24:24;;;;;;;7.93;2.90;;;12.80;99.90;;;;;;5001790;28;21002;-83
2023/05/30 03:26:52;;;;;;;6.30;2.80;;;13.10;1.00;;;;;;5010970;28;20512;-83
2023/05/30 03:29:19;;;;;;;5.30;2.73;;;12.80;99.90;;;;;;5009259;28;20433;-84
2023/05/30 03:31:46;;;;;;;4.03;3.10;;;12.60;99.90;;;;;;5008447;28;20516;-84
2023/05/30 03:34:13;;;;;;;7.90;4.10;;;12.70;99.90;;;;;;5007513;28;20475;-84
2023/05/30 03:36:41;;;;;;;7.77;3.00;;;12.70;99.90;;;;;;5007464;28;20880;-83
2023/05/30 03:39:08;;;;;;;6.77;2.57;;;12.80;99.90;;;;;;5007793;28;20444;-83
2023/05/30 03:41:35;;;;;;;6.83;3.03;;;12.70;99.90;;;;;;5007420;28;20449;-84
2023/05/30 03:44:03;;;;;;;7.90;2.47;;;12.70;99.90;;;;;;5006682;28;20472;-82
2023/05/30 03:46:31;;;;;;;4.37;2.97;;;12.70;99.90;;;;;;5007947;28;20508;-84
2023/05/30 03:48:58;;;;;;;9.03;2.93;;;12.70;99.90;;;;;;5005784;28;20430;-84
2023/05/30 03:51:26;;;;;;;4.33;3.27;;;12.70;99.90;;;;;;5006779;28;20540;-83
2023/05/30 03:53:53;;;;;;;5.30;3.13;;;12.80;99.90;;;;;;5014495;28;20524;-82
2023/05/30 03:56:19;;;;;;;4.37;2.70;;;12.80;99.90;;;;;;4999964;28;20931;-83
2023/05/30 03:58:46;;;;;;;4.00;3.43;;;12.90;99.90;;;;;;5001162;28;20487;-83
2023/05/30 04:01:14;;;;;;;3.97;3.20;;;13.00;99.90;;;;;;5004929;28;20459;-83
2023/05/30 04:03:43;;;;;;;10.57;3.43;;;12.70;1.00;;;;;;5019113;28;20457;-83
2023/05/30 04:06:11;;;;;;;5.90;3.10;;;13.10;99.90;;;;;;5019524;28;20429;-83
2023/05/30 04:08:39;;;;;;;6.23;3.27;;;13.10;99.90;;;;;;5015160;28;20441;-84
2023/05/30 04:11:07;;;;;;;6.10;3.03;;;13.20;99.90;;;;;;5006636;28;20543;-84
2023/05/30 04:13:34;;;;;;;5.10;3.20;;;13.40;99.90;;;;;;5006137;28;20959;-84
2023/05/30 04:16:01;;;;;;;8.67;2.80;;;13.20;99.90;;;;;;5005186;28;20463;-84
2023/05/30 04:18:29;;;;;;;6.70;3.20;;;13.30;99.90;;;;;;5004864;28;20516;-85
2023/05/30 04:20:56;;;;;;;5.43;3.40;;;13.30;99.90;;;;;;5005450;28;20434;-85
2023/05/30 04:23:23;;;;;;;5.20;2.67;;;13.80;1.00;;;;;;5006771;28;20455;-85
2023/05/30 04:25:50;;;;;;;6.93;2.60;;;13.30;99.90;;;;;;5006414;28;20465;-85
2023/05/30 04:28:19;;;;;;;5.23;2.80;;;13.40;99.90;;;;;;5005226;28;20487;-85
2023/05/30 04:30:48;;;;;;;3.43;2.73;;;13.30;99.90;;;;;;5004372;28;20499;-85
2023/05/30 04:33:16;;;;;;;5.30;2.90;;;13.30;99.90;;;;;;5003985;28;20456;-83
2023/05/30 04:35:45;;;;;;;4.00;2.60;;;13.20;99.90;;;;;;5004877;28;20489;-84
2023/05/30 04:38:16;;;;;;;5.07;2.30;;;13.20;99.90;;;;;;5018977;28;20425;-82
2023/05/30 04:40:42;;;;;;;3.97;3.50;;;13.30;99.90;;;;;;5020353;28;20455;-82
2023/05/30 04:43:09;;;;;;;4.43;2.30;;;13.20;99.90;;;;;;5011174;28;20477;-84
2023/05/30 04:45:36;;;;;;;4.37;3.00;;;13.30;99.90;;;;;;5001933;28;20443;-84
2023/05/30 04:48:04;;;;;;;6.90;2.00;;;13.30;99.90;;;;;;5000741;28;20485;-84
2023/05/30 04:50:31;;;;;;;4.40;3.00;;;13.10;99.90;;;;;;4999458;28;20453;-84
2023/05/30 04:52:59;;;;;;;2.90;2.47;;;13.40;99.90;;;;;;5001047;28;20456;-84
2023/05/30 04:55:26;;;;;;;3.17;2.63;;;;;;;;;;5002145;28;20939;-84
2023/05/30 04:57:53;;;;;;;4.27;2.80;;;13.50;99.90;;;;;;5001820;28;20445;-85
2023/05/30 05:00:21;;;;;;;4.10;2.47;;;13.60;99.90;;;;;;5004950;28;20427;-84
2023/05/30 05:02:48;;;;;;;2.90;2.17;;;13.60;99.90;;;;;;5007898;28;20863;-83
2023/05/30 05:05:15;;;;;;;5.07;3.07;;;13.50;99.90;;;;;;5007347;28;20497;-85
2023/05/30 05:07:41;;;;;;;5.50;3.20;;;13.60;99.90;;;;;;5006049;28;20434;-84
2023/05/30 05:10:10;;;;;;;5.97;3.27;;;13.70;99.90;;;;;;5007128;28;20513;-84
2023/05/30 05:12:37;;;;;;;20.43;11.03;;;13.90;99.90;;;;;;5007317;28;20452;-84
2023/05/30 05:15:05;;;;;;;6.33;3.33;;;13.90;99.90;;;;;;5006184;28;20495;-84
2023/05/30 05:17:31;;;;;;;3.10;2.10;;;14.00;99.90;;;;;;5007196;28;20509;-84
2023/05/30 05:19:58;;;;;;;6.20;3.23;;;14.10;1.00;;;;;;5016117;28;20459;-84
2023/05/30 05:22:25;;;;;;;4.57;2.33;;;14.20;1.00;;;;;;5010372;28;20456;-85
2023/05/30 05:24:52;;;;;;;7.27;2.57;;;14.00;99.90;;;;;;5007366;28;20971;-85
2023/05/30 05:27:22;;;;;;;5.43;2.90;;;13.90;99.90;;;;;;5005252;28;20494;-85
2023/05/30 05:29:49;;;;;;;3.63;2.00;;;14.10;99.90;;;;;;5007990;28;20408;-85
2023/05/30 05:32:16;;;;;;;4.90;2.10;;;14.10;99.90;;;;;;5008206;28;20507;-83
2023/05/30 05:34:42;;;;;;;8.80;2.70;;;14.20;99.90;;;;;;5014980;28;20536;-83
2023/05/30 05:37:09;;;;;;;8.50;2.73;;;14.30;99.90;;;;;;5016795;28;20473;-83
2023/05/30 05:39:36;;;;;;;9.30;2.67;;;14.30;99.90;;;;;;5009787;28;20488;-84
2023/05/30 05:42:03;;;;;;;6.73;2.50;;;14.20;99.90;;;;;;5006001;28;20516;-84
2023/05/30 05:44:31;;;;;;;8.40;2.10;;;14.30;99.90;;;;;;5005752;28;20536;-84
2023/05/30 05:46:58;;;;;;;7.10;3.20;;;14.40;99.90;;;;;;5005751;28;20869;-84
2023/05/30 05:49:25;;;;;;;7.37;2.37;;;14.50;1.00;;;;;;5006387;28;20424;-85
2023/05/30 05:51:52;;;;;;;8.43;2.83;;;14.50;99.90;;;;;;5007200;28;20552;-85
2023/05/30 05:54:19;;;;;;;7.50;2.30;;;14.30;99.90;;;;;;5006548;28;20473;-85
2023/05/30 05:56:46;;;;;;;9.33;3.30;;;15.40;99.90;;;;;;5005413;28;20485;-84
2023/05/30 05:59:15;;;;;;;4.33;2.37;;;14.60;99.90;;;;;;5010416;28;20487;-85
2023/05/30 06:01:45;;;;;;;5.00;2.60;;;14.70;99.90;;;;;;5013519;28;20460;-84
2023/05/30 06:04:13;;;;;;;9.23;2.80;;;14.80;99.90;;;;;;5010500;28;20507;-85
2023/05/30 06:06:40;;;;;;;6.87;3.43;;;14.80;99.90;;;;;;5006847;28;20874;-84
2023/05/30 06:09:07;;;;;;;6.60;2.60;;;;;;;;;;5005635;28;20473;-84
2023/05/30 06:11:34;;;;;;;10.20;2.77;;;15.00;1.00;;;;;;5005554;28;20947;-85
2023/05/30 06:14:01;;;;;;;7.10;2.47;;;14.80;99.90;;;;;;5005316;28;20465;-84
2023/05/30 06:16:28;;;;;;;5.37;2.67;;;14.80;99.90;;;;;;5004825;28;20533;-85
2023/05/30 06:18:56;;;;;;;4.70;2.00;;;14.80;99.90;;;;;;5009637;28;20484;-85
2023/05/30 06:21:23;;;;;;;3.23;2.30;;;14.90;99.90;;;;;;5010915;28;20445;-83
2023/05/30 06:23:50;;;;;;;11.10;2.97;;;15.10;1.00;;;;;;5010699;28;20901;-84
2023/05/30 06:26:16;;;;;;;4.40;2.60;;;15.10;99.90;;;;;;5007146;28;20456;-84
2023/05/30 06:28:43;;;;;;;4.33;3.47;;;15.10;99.90;;;;;;5005020;28;20452;-84
2023/05/30 06:31:10;;;;;;;4.20;2.70;;;15.30;99.90;;;;;;5005723;28;20551;-85
2023/05/30 06:33:37;;;;;;;3.03;2.23;;;15.40;99.90;;;;;;5005079;28;20819;-84
2023/05/30 06:36:07;;;;;;;2.97;2.10;;;15.30;99.90;;;;;;5005368;28;20484;-84
2023/05/30 06:38:34;;;;;;;6.17;2.90;;;15.30;99.90;;;;;;5013594;28;20445;-83
2023/05/30 06:41:01;;;;;;;4.03;2.53;;;;;;;;;;5010314;28;20464;-85
2023/05/30 06:43:28;;;;;;;5.30;2.37;;;15.40;99.90;;;;;;5001810;28;20452;-84
2023/05/30 06:45:54;;;;;;;10.80;3.30;;;15.40;99.90;;;;;;5002673;28;20491;-84
2023/05/30 06:48:21;;;;;;;3.57;2.03;;;15.60;99.90;;;;;;5003614;28;20452;-85
2023/05/30 06:50:48;;;;;;;8.60;2.10;;;15.60;99.90;;;;;;5005955;28;20889;-85
2023/05/30 06:53:17;;;;;;;4.27;2.70;;;15.60;99.90;;;;;;5006868;28;20540;-84
2023/05/30 06:55:43;;;;;;;4.23;2.33;;;15.80;99.90;;;;;;5006522;28;20842;-86
2023/05/30 06:58:10;;;;;;;6.77;1.90;;;15.70;99.90;;;;;;5019716;28;20472;-84
2023/05/30 07:00:38;;;;;;;3.67;2.70;;;15.70;99.90;;;;;;5018737;28;20504;-85
2023/05/30 07:03:05;;;;;;;6.00;3.40;;;15.80;99.90;;;;;;5008431;28;20457;-84
2023/05/30 07:05:32;;;;;;;12.47;3.20;;;15.70;99.90;;;;;;5007153;28;20504;-85
2023/05/30 07:07:58;;;;;;;5.93;2.83;;;15.70;99.90;;;;;;5006377;28;20483;-85
2023/05/30 07:10:27;;;;;;;5.07;2.60;;;15.80;99.90;;;;;;5007309;28;20487;-86
2023/05/30 07:12:53;;;;;;;6.77;2.30;;;16.10;99.90;;;;;;5006810;28;20481;-84
2023/05/30 07:15:20;;;;;;;7.07;2.67;;;16.20;99.90;;;;;;5004005;28;20511;-83
2023/05/30 07:17:47;;;;;;;5.47;2.70;;;16.30;99.90;;;;;;5005520;28;20431;-86
2023/05/30 07:20:20;;;;;;;2.10;1.90;;;16.30;99.90;;;;;;5006007;28;20451;-84
2023/05/30 07:22:47;;;;;;;3.63;2.50;;;16.30;99.90;;;;;;5005004;28;20453;-84
2023/05/30 07:25:14;;;;;;;4.67;2.80;;;16.30;99.90;;;;;;5005575;28;21038;-84
2023/05/30 07:27:42;;;;;;;4.37;3.30;;;16.30;99.90;;;;;;5000585;28;20522;-84
2023/05/30 07:30:10;;;;;;;5.40;2.80;;;16.30;99.90;;;;;;5001069;28;20474;-84
2023/05/30 07:32:36;;;;;;;3.97;2.80;;;16.50;99.90;;;;;;5003700;28;20543;-84
2023/05/30 07:35:03;;;;;;;3.83;2.10;;;16.50;99.90;;;;;;5011167;28;20495;-84
2023/05/30 07:37:30;;;;;;;4.70;2.50;;;16.60;99.90;;;;;;5016637;28;20487;-84
2023/05/30 07:39:57;;;;;;;6.03;2.60;;;16.80;99.90;;;;;;5011485;28;20525;-84
2023/05/30 07:42:24;;;;;;;6.43;2.10;;;16.80;99.90;;;;;;5010448;28;20955;-85
2023/05/30 07:44:52;;;;;;;7.97;2.27;;;16.80;99.90;;;;;;5009013;28;20557;-85
2023/05/30 07:47:19;;;;;;;5.40;2.07;;;16.70;99.90;;;;;;5006267;28;20496;-85
2023/05/30 07:49:46;;;;;;;2.33;1.63;;;16.80;99.90;;;;;;5006971;28;20491;-85
2023/05/30 07:52:13;;;;;;;4.43;2.43;;;17.20;1.00;;;;;;5006282;28;20938;-84
2023/05/30 07:54:40;;;;;;;2.10;1.90;;;16.80;99.90;;;;;;5005228;28;20492;-84
2023/05/30 07:57:07;;;;;;;3.97;1.70;;;16.90;99.90;;;;;;5003678;28;20541;-85
2023/05/30 07:59:34;;;;;;;5.50;2.10;;;16.70;99.90;;;;;;5003993;28;20511;-84
2023/05/30 08:02:02;;;;;;;5.03;2.03;;;16.70;1.00;;;;;;5006438;28;20512;-87
2023/05/30 08:04:29;;;;;;;4.63;2.10;;;17.00;99.90;;;;;;5005540;28;20503;-83
2023/05/30 08:06:55;;;;;;;3.57;1.80;;;17.10;99.90;;;;;;5001541;28;20453;-82
2023/05/30 08:09:22;;;;;;;3.43;2.33;;;17.20;99.90;;;;;;5000715;28;20452;-84
2023/05/30 08:11:49;;;;;;;5.20;2.57;;;17.10;99.90;;;;;;5002131;28;20441;-84
2023/05/30 08:14:16;;;;;;;3.80;2.63;;;17.00;99.90;;;;;;5001033;28;21028;-83
2023/05/30 08:16:43;;;;;;;3.47;2.57;;;17.10;99.90;;;;;;5000752;28;20485;-83
2023/05/30 08:19:13;;;;;;;3.00;2.60;;;17.20;99.90;;;;;;5009210;28;20457;-82
2023/05/30 08:21:40;;;;;;;6.00;2.57;;;17.30;99.90;;;;;;5018742;28;20430;-83
2023/05/30 08:24:07;;;;;;;6.53;2.63;;;17.30;99.90;;;;;;5014309;28;20497;-84
2023/05/30 08:26:35;;;;;;;4.70;1.97;;;17.40;99.90;;;;;;5004705;28;20427;-84
2023/05/30 08:29:03;;;;;;;3.70;2.20;;;17.60;1.00;;;;;;5001043;28;20514;-84
2023/05/30 08:31:30;;;;;;;4.43;2.50;;;17.50;99.90;;;;;;5002208;28;20452;-84
2023/05/30 08:33:57;;;;;;;10.23;3.73;;;17.60;99.90;;;;;;5004110;28;20476;-84
2023/05/30 08:36:25;;;;;;;4.20;2.13;;;17.30;99.90;;;;;;5003220;28;20531;-84
2023/05/30 08:38:54;;;;;;;8.20;3.17;;;17.60;99.90;;;;;;5008692;28;20508;-83
2023/05/30 08:41:21;;;;;;;4.87;2.40;;;17.60;99.90;;;;;;5012488;28;20472;-83
2023/05/30 08:43:48;;;;;;;6.80;1.97;;;17.50;1.00;;;;;;5005243;28;20505;-83
2023/05/30 08:46:17;;;;;;;6.20;2.63;;;17.60;99.90;;;;;;5009058;28;20981;-83
2023/05/30 08:48:45;;;;;;;8.27;2.40;;;17.70;99.90;;;;;;5004463;28;20511;-85
2023/05/30 08:51:15;;;;;;;5.67;2.50;;;17.70;99.90;;;;;;5003529;28;20536;-83
2023/05/30 08:53:49;;;;;;;7.23;2.67;;;17.60;1.00;;;;;;5001826;28;20429;-83
2023/05/30 08:56:21;;;;;;;6.37;2.90;;;17.80;99.90;;;;;;5004062;28;20518;-83
2023/05/30 08:58:50;;;;;;;7.63;2.40;;;18.00;99.90;;;;;;5008733;28;20425;-83
2023/05/30 09:01:18;;;;;;;5.37;2.30;;;18.00;99.90;;;;;;5007141;28;20455;-83
2023/05/30 09:03:45;;;;;;;4.90;2.43;;;18.40;1.00;;;;;;5002472;28;20449;-83
2023/05/30 09:06:13;;;;;;;7.83;2.50;;;18.00;99.90;;;;;;5001753;28;20441;-84
2023/05/30 09:08:45;;;;;;;6.13;2.37;;;18.00;99.90;;;;;;5001104;28;20453;-83
2023/05/30 09:11:13;;;;;;;2.60;1.93;;;17.90;99.90;;;;;;5001602;28;20443;-84
2023/05/30 09:13:41;;;;;;;9.73;2.37;;;17.20;99.90;;;;;;5010595;28;20437;-83
2023/05/30 09:16:08;;;;;;;5.07;2.30;;;18.10;99.90;;;;;;5017905;28;20527;-83
2023/05/30 09:18:35;;;;;;;3.97;2.63;;;18.10;99.90;;;;;;5018038;28;20448;-83
2023/05/30 09:21:02;;;;;;;7.80;3.30;;;18.20;99.90;;;;;;5016823;28;20433;-84
2023/05/30 09:23:29;;;;;;;7.23;2.70;;;18.20;99.90;;;;;;5011162;28;20467;-83
2023/05/30 09:25:59;;;;;;;3.80;2.10;;;18.20;99.90;;;;;;5012683;28;20476;-82
2023/05/30 09:28:27;;;;;;;3.77;2.77;;;18.10;99.90;;;;;;5013698;28;20429;-83
2023/05/30 09:30:55;;;;;;;4.40;3.20;;;18.70;1.00;;;;;;5015283;28;20468;-82
2023/05/30 09:33:22;;;;;;;6.43;2.80;;;18.30;99.90;;;;;;5016454;28;20444;-82
2023/05/30 09:35:53;;;;;;;5.63;1.97;;;18.50;99.90;;;;;;5016304;28;20461;-81
2023/05/30 09:38:21;;;;;;;3.33;2.50;;;18.60;99.90;;;;;;5017806;28;20495;-81
2023/05/30 09:40:51;;;;;;;5.60;2.80;;;18.50;99.90;;;;;;5018216;28;20445;-81
2023/05/30 09:43:34;;;;;;;10.20;3.07;;;18.50;99.90;;;;;;5016091;28;20445;-81
2023/05/30 09:46:01;;;;;;;3.50;2.30;;;18.50;99.90;;;;;;5014829;28;20437;-82
2023/05/30 09:48:28;;;;;;;7.63;2.50;;;18.60;99.90;;;;;;5014602;28;20453;-83
2023/05/30 09:50:59;;;;;;;4.80;3.20;;;18.60;99.90;;;;;;5009961;28;20459;-81
2023/05/30 09:53:29;;;;;;;2.77;1.67;;;18.60;99.90;;;;;;5007660;28;20532;-81
2023/05/30 09:55:56;;;;;;;3.27;2.90;;;18.60;99.90;;;;;;5008013;28;20477;-81
2023/05/30 09:58:24;;;;;;;6.87;2.47;;;18.70;99.90;;;;;;5007759;28;20485;-82
2023/05/30 10:00:53;;;;;;;4.70;2.47;;;18.60;99.90;;;;;;5009502;28;20508;-81
2023/05/30 10:03:21;;;;;;;7.00;2.40;;;18.80;99.90;;;;;;5008627;28;20491;-81
2023/05/30 10:05:49;;;;;;;6.70;2.87;;;18.80;99.90;;;;;;5010926;28;20465;-82
2023/05/30 10:08:16;;;;;;;2.93;2.37;;;18.80;99.90;;;;;;5009949;28;20493;-81
2023/05/30 10:10:43;;;;;;;6.20;2.50;;;18.90;99.90;;;;;;5015392;28;20444;-82
2023/05/30 10:13:10;;;;;;;4.33;2.20;;;19.00;99.90;;;;;;5018316;28;20440;-82
2023/05/30 10:15:37;;;;;;;9.40;3.10;;;19.10;99.90;;;;;;5021129;28;20588;-81
2023/05/30 10:18:09;;;;;;;7.47;2.60;;;19.10;99.90;;;;;;5019455;28;20494;-82
2023/05/30 10:20:39;;;;;;;5.27;2.10;;;19.40;99.90;;;;;;5017008;28;20425;-83
2023/05/30 10:23:07;;;;;;;4.07;1.97;;;19.20;99.90;;;;;;5016243;28;20439;-82
2023/05/30 10:25:38;;;;;;;5.43;2.40;;;19.20;99.90;;;;;;5016165;28;20472;-81
2023/05/30 10:28:07;;;;;;;6.57;2.80;;;19.20;99.90;;;;;;5016584;28;20460;-81
2023/05/30 10:30:35;;;;;;;3.57;2.13;;;19.30;99.90;;;;;;5017317;28;20456;-81
2023/05/30 10:33:05;;;;;;;5.90;2.83;;;19.30;99.90;;;;;;5017287;28;20444;-82
2023/05/30 10:35:34;;;;;;;6.90;2.97;;;19.30;99.90;;;;;;5014622;28;20492;-83
2023/05/30 10:38:02;;;;;;;5.77;2.40;;;19.30;99.90;;;;;;5015369;28;20527;-82
2023/05/30 10:40:48;;;;;;;7.63;3.73;;;19.40;99.90;;;;;;5014111;28;20448;-82
2023/05/30 10:43:30;;;;;;;2.37;2.00;;;19.50;99.90;;;;;;5007097;28;20456;-81
2023/05/30 10:46:08;;;;;;;9.20;3.90;;;19.50;99.90;;;;;;5010194;28;20926;-81
2023/05/30 10:48:44;;;;;;;5.60;2.50;;;19.60;99.90;;;;;;5017898;28;20412;-80
2023/05/30 10:51:13;;;;;;;5.70;3.10;;;19.80;99.90;;;;;;5017958;28;20464;-81
2023/05/30 10:53:42;;;;;;;4.30;3.20;;;19.80;99.90;;;;;;5016006;28;20444;-81
2023/05/30 10:56:40;;;;;;;3.87;2.80;;;19.50;99.90;;;;;;5016578;28;20484;-82
2023/05/30 10:59:13;;;;;;;8.20;2.60;;;19.70;99.90;;;;;;5013980;28;20466;-82
2023/05/30 11:01:40;;;;;;;9.73;2.63;;;19.50;99.90;;;;;;5015217;28;20421;-82
2023/05/30 11:04:09;;;;;;;3.87;2.90;;;19.80;99.90;;;;;;5012739;28;20457;-82
2023/05/30 11:06:42;;;;;;;3.43;2.33;;;19.90;99.90;;;;;;5016626;28;20444;-82
2023/05/30 11:09:11;;;;;;;5.80;2.60;;;19.90;99.90;;;;;;5018078;28;20436;-82
2023/05/30 11:11:41;;;;;;;8.73;2.33;;;19.90;99.90;;;;;;5017623;28;20445;-82
2023/05/30 11:14:10;;;;;;;4.50;2.03;;;19.80;99.90;;;;;;5011924;28;20587;-81
2023/05/30 11:16:49;;;;;;;6.90;2.90;;;20.00;99.90;;;;;;5016923;28;20505;-82
2023/05/30 11:19:18;;;;;;;6.67;2.60;;;20.10;99.90;;;;;;5015215;28;20445;-82
2023/05/30 11:22:00;;;;;;;4.47;2.10;;;19.90;99.90;;;;;;5013414;28;20460;-80
2023/05/30 11:24:28;;;;;;;8.70;2.97;;;20.10;99.90;;;;;;5014174;28;20460;-82
2023/05/30 11:26:56;;;;;;;3.97;2.73;;;20.10;99.90;;;;;;5014774;28;20834;-82
2023/05/30 11:29:33;;;;;;;5.33;1.93;;;20.10;99.90;;;;;;5014977;28;20467;-82
2023/05/30 11:32:01;;;;;;;7.80;2.77;;;20.30;99.90;;;;;;5018301;28;20469;-82
2023/05/30 11:34:28;;;;;;;4.70;2.43;;;20.20;99.90;;;;;;5018912;28;20464;-83
2023/05/30 11:36:58;;;;;;;4.47;2.00;;;20.20;99.90;;;;;;5017081;28;20445;-81
2023/05/30 11:39:25;;;;;;;4.77;2.30;;;20.10;99.90;;;;;;5015295;28;20456;-82
2023/05/30 11:41:53;;;;;;;3.83;2.50;;;20.20;99.90;;;;;;5016628;28;20444;-82
2023/05/30 11:44:21;;;;;;;5.77;3.00;;;20.30;99.90;;;;;;5014583;28;20492;-82
2023/05/30 11:46:58;;;;;;;3.87;2.13;;;20.70;1.00;;;;;;5014336;28;20453;-81
2023/05/30 11:49:25;;;;;;;7.33;2.50;;;20.40;99.90;;;;;;5014833;28;20444;-83
2023/05/30 11:51:53;;;;;;;4.53;2.00;;;;;;;;;;5015250;28;20516;-83
2023/05/30 11:54:22;;;;;;;7.17;2.20;;;20.60;99.90;;;;;;5014782;28;20523;-82
2023/05/30 11:56:50;;;;;;;2.87;2.00;;;20.60;99.90;;;;;;5015044;28;20519;-83
2023/05/30 11:59:21;;;;;;;2.90;2.23;;;20.60;99.90;;;;;;5014128;28;20445;-81
2023/05/30 12:01:52;;;;;;;3.83;2.70;;;20.20;99.90;;;;;;5015206;28;20441;-82
2023/05/30 12:04:22;;;;;;;2.57;2.37;;;20.10;1.00;;;;;;5012230;28;20563;-82
2023/05/30 12:06:50;;;;;;;2.70;2.07;;;20.60;99.90;;;;;;5007772;28;20839;-81
2023/05/30 12:09:17;;;;;;;5.20;2.50;;;20.60;1.00;;;;;;5009599;28;20512;-81
2023/05/30 12:11:57;;;;;;;2.90;1.97;;;20.60;99.90;;;;;;5008833;28;20449;-81
2023/05/30 12:15:00;;;;;;;3.43;2.57;;;20.70;99.90;;;;;;5009752;28;20482;-82
2023/05/30 12:17:28;;;;;;;6.63;2.33;;;;;;;;;;5011602;28;20528;-83
2023/05/30 12:19:57;;;;;;;2.03;1.80;;;20.80;99.90;;;;;;5015217;28;20977;-83
2023/05/30 12:22:24;;;;;;;4.13;2.03;;;20.90;1.00;;;;;;5012184;28;20548;-82
2023/05/30 12:24:53;;;;;;;8.57;2.63;;;20.80;99.90;;;;;;5012929;28;20468;-82
2023/05/30 12:27:22;;;;;;;2.27;2.07;;;20.80;99.90;;;;;;5013605;28;20440;-82
2023/05/30 12:29:50;;;;;;;4.20;2.37;;;20.70;99.90;;;;;;5013890;28;21030;-82
2023/05/30 12:32:22;;;;;;;3.37;2.07;;;20.80;99.90;;;;;;5012588;28;20449;-82
2023/05/30 12:34:49;;;;;;;2.60;1.90;;;;;;;;;;5013463;28;20469;-82
2023/05/30 12:37:18;;;;;;;6.30;2.83;;;21.10;99.90;;;;;;5013326;28;20552;-82
2023/05/30 12:39:50;;;;;;;3.27;2.20;;;21.10;99.90;;;;;;5014021;28;20449;-83
2023/05/30 12:42:23;;;;;;;5.83;2.40;;;21.20;99.90;;;;;;5013836;28;20459;-83
2023/05/30 12:44:52;;;;;;;5.30;1.90;;;21.20;99.90;;;;;;5016004;28;20782;-82
2023/05/30 12:47:19;;;;;;;5.80;2.77;;;21.30;99.90;;;;;;5015342;28;20468;-80
2023/05/30 12:49:47;;;;;;;6.23;2.20;;;21.10;99.90;;;;;;5018748;28;20445;-81
2023/05/30 12:52:14;;;;;;;5.47;2.33;;;21.10;99.90;;;;;;5017359;28;20504;-81
2023/05/30 12:54:42;;;;;;;3.40;1.93;;;21.10;99.90;;;;;;5017299;28;20480;-81
2023/05/30 12:57:09;;;;;;;6.00;1.93;;;21.20;99.90;;;;;;5016525;28;20453;-82